createdAt,value
2017-06-16T00:00:08.107Z,16.6
2017-06-16T00:01:07.220Z,16.6
2017-06-16T00:02:06.960Z,16.6
2017-06-16T00:03:05.952Z,16.6
2017-06-16T00:04:05.333Z,16.6
2017-06-16T00:05:04.568Z,16.6
2017-06-16T00:06:03.686Z,16.7
2017-06-16T00:07:03.300Z,16.7
2017-06-16T00:07:33.729Z,16.7
2017-06-16T00:08:04.420Z,16.7
2017-06-16T00:08:34.964Z,16.7
2017-06-16T00:10:01.256Z,16.6
2017-06-16T00:11:00.456Z,16.7
2017-06-16T00:12:00.069Z,16.7
2017-06-16T00:12:59.292Z,16.7
2017-06-16T00:13:58.518Z,16.7
2017-06-16T00:14:57.750Z,16.7
2017-06-16T00:15:57.048Z,16.7
2017-06-16T00:16:56.665Z,16.7
2017-06-16T00:17:55.893Z,16.7
2017-06-16T00:18:55.008Z,16.7
2017-06-16T00:19:54.743Z,16.7
2017-06-16T00:20:53.736Z,16.7
2017-06-16T00:21:52.970Z,16.7
2017-06-16T00:22:52.715Z,16.8
2017-06-16T00:23:51.713Z,16.8
2017-06-16T00:25:50.289Z,16.8
2017-06-16T00:27:48.913Z,16.8
2017-06-16T00:28:48.526Z,16.7
2017-06-16T00:29:47.769Z,16.8
2017-06-16T00:30:46.991Z,16.7
2017-06-16T00:31:46.870Z,16.7
2017-06-16T00:32:45.535Z,16.7
2017-06-16T00:33:45.229Z,16.7
2017-06-16T00:34:44.836Z,16.7
2017-06-16T00:35:43.947Z,16.7
2017-06-16T00:36:42.821Z,16.7
2017-06-16T00:37:42.433Z,16.7
2017-06-16T00:38:41.930Z,16.7
2017-06-16T00:39:41.164Z,16.7
2017-06-16T00:40:40.280Z,16.8
2017-06-16T00:41:39.517Z,16.8
2017-06-16T00:42:39.247Z,16.8
2017-06-16T00:43:38.359Z,16.8
2017-06-16T00:44:37.472Z,16.8
2017-06-16T00:45:36.851Z,16.8
2017-06-16T00:46:36.075Z,16.8
2017-06-16T00:47:35.837Z,16.8
2017-06-16T00:48:35.076Z,16.8
2017-06-16T00:49:34.300Z,16.8
2017-06-16T00:50:33.540Z,16.8
2017-06-16T00:51:32.772Z,16.8
2017-06-16T00:52:32.072Z,16.8
2017-06-16T00:53:31.570Z,16.8
2017-06-16T00:54:30.690Z,16.9
2017-06-16T00:55:30.416Z,16.9
2017-06-16T00:56:29.649Z,16.9
2017-06-16T00:57:28.840Z,16.9
2017-06-16T00:58:28.020Z,16.8
2017-06-16T00:59:27.638Z,16.8
2017-06-16T01:00:26.871Z,16.9
2017-06-16T01:01:25.984Z,16.9
2017-06-16T01:02:25.598Z,16.9
2017-06-16T01:03:24.712Z,16.9
2017-06-16T01:04:24.013Z,16.9
2017-06-16T01:05:23.247Z,16.9
2017-06-16T01:06:23.057Z,16.9
2017-06-16T01:09:20.564Z,16.9
2017-06-16T01:10:20.292Z,16.9
2017-06-16T01:11:19.527Z,16.9
2017-06-16T01:12:18.635Z,16.9
2017-06-16T01:13:18.017Z,16.9
2017-06-16T01:14:17.510Z,16.9
2017-06-16T01:16:16.228Z,16.9
2017-06-16T01:17:15.494Z,16.9
2017-06-16T01:18:14.607Z,16.8
2017-06-16T01:19:13.841Z,16.8
2017-06-16T01:20:13.578Z,16.8
2017-06-16T01:21:12.806Z,16.8
2017-06-16T01:22:12.030Z,16.8
2017-06-16T01:23:11.256Z,16.8
2017-06-16T01:24:10.491Z,16.8
2017-06-16T01:25:10.111Z,16.8
2017-06-16T01:27:08.734Z,16.8
2017-06-16T01:28:07.848Z,16.8
2017-06-16T01:29:07.469Z,16.8
2017-06-16T01:30:06.702Z,16.8
2017-06-16T01:31:05.857Z,16.8
2017-06-16T01:32:05.356Z,16.7
2017-06-16T01:33:04.589Z,16.7
2017-06-16T01:34:03.823Z,16.8
2017-06-16T01:35:02.941Z,16.7
2017-06-16T01:36:02.561Z,16.7
2017-06-16T01:37:01.788Z,16.7
2017-06-16T01:38:01.991Z,16.7
2017-06-16T01:39:00.604Z,16.7
2017-06-16T01:39:59.837Z,16.8
2017-06-16T01:40:59.079Z,16.8
2017-06-16T01:41:58.308Z,16.8
2017-06-16T01:42:58.041Z,16.8
2017-06-16T01:43:57.277Z,16.8
2017-06-16T01:44:56.518Z,16.8
2017-06-16T01:45:55.746Z,16.7
2017-06-16T01:46:54.980Z,16.8
2017-06-16T01:47:54.714Z,16.7
2017-06-16T01:48:53.947Z,16.7
2017-06-16T01:49:53.177Z,16.7
2017-06-16T01:50:52.412Z,16.7
2017-06-16T01:51:51.649Z,16.7
2017-06-16T01:52:50.876Z,16.7
2017-06-16T01:53:50.614Z,16.7
2017-06-16T01:54:49.755Z,16.7
2017-06-16T01:55:48.881Z,16.7
2017-06-16T01:56:48.654Z,16.7
2017-06-16T01:57:47.765Z,16.7
2017-06-16T01:58:46.875Z,16.7
2017-06-16T01:59:46.685Z,16.7
2017-06-16T02:00:45.909Z,16.7
2017-06-16T02:01:45.028Z,16.7
2017-06-16T02:02:44.141Z,16.8
2017-06-16T02:03:43.868Z,16.7
2017-06-16T02:04:43.100Z,16.7
2017-06-16T02:05:42.208Z,16.7
2017-06-16T02:06:41.440Z,16.7
2017-06-16T02:07:40.939Z,16.7
2017-06-16T02:08:40.175Z,16.7
2017-06-16T02:09:39.415Z,16.8
2017-06-16T02:10:38.646Z,16.7
2017-06-16T02:11:38.027Z,16.8
2017-06-16T02:12:37.528Z,16.8
2017-06-16T02:13:37.336Z,16.7
2017-06-16T02:15:35.453Z,16.7
2017-06-16T02:16:34.566Z,16.7
2017-06-16T02:17:34.308Z,16.7
2017-06-16T02:18:33.553Z,16.7
2017-06-16T02:19:32.660Z,16.7
2017-06-16T02:20:31.892Z,16.7
2017-06-16T02:21:31.515Z,16.7
2017-06-16T02:22:30.766Z,16.7
2017-06-16T02:23:29.994Z,16.7
2017-06-16T02:24:00.541Z,16.7
2017-06-16T02:24:30.959Z,16.6
2017-06-16T02:25:01.499Z,16.6
2017-06-16T02:25:32.049Z,16.6
2017-06-16T02:26:03.056Z,16.6
2017-06-16T02:27:27.447Z,16.6
2017-06-16T02:28:26.561Z,16.6
2017-06-16T02:29:25.794Z,16.6
2017-06-16T02:31:24.416Z,16.7
2017-06-16T02:32:24.156Z,16.6
2017-06-16T02:33:23.459Z,16.6
2017-06-16T02:34:22.569Z,16.6
2017-06-16T02:35:21.804Z,16.6
2017-06-16T02:36:20.920Z,16.6
2017-06-16T02:37:20.418Z,16.6
2017-06-16T02:38:20.153Z,16.6
2017-06-16T02:39:19.381Z,16.6
2017-06-16T02:40:18.616Z,16.6
2017-06-16T02:41:17.842Z,16.6
2017-06-16T02:42:17.081Z,16.6
2017-06-16T02:43:16.314Z,16.6
2017-06-16T02:45:15.322Z,16.6
2017-06-16T02:46:14.435Z,16.6
2017-06-16T02:47:13.666Z,16.6
2017-06-16T02:48:12.897Z,16.6
2017-06-16T02:49:12.634Z,16.6
2017-06-16T02:50:11.746Z,16.6
2017-06-16T02:51:10.982Z,16.6
2017-06-16T02:52:10.218Z,16.6
2017-06-16T02:53:09.962Z,16.6
2017-06-16T02:54:09.198Z,16.6
2017-06-16T02:55:08.432Z,16.5
2017-06-16T02:56:07.661Z,16.6
2017-06-16T02:57:06.666Z,16.5
2017-06-16T02:58:06.160Z,16.5
2017-06-16T02:58:36.585Z,16.5
2017-06-16T02:59:07.140Z,16.5
2017-06-16T03:00:04.747Z,16.5
2017-06-16T03:01:04.480Z,16.5
2017-06-16T03:02:03.707Z,16.5
2017-06-16T03:03:02.706Z,16.5
2017-06-16T03:04:02.323Z,16.5
2017-06-16T03:05:01.552Z,16.5
2017-06-16T03:06:00.665Z,16.5
2017-06-16T03:07:00.395Z,16.5
2017-06-16T03:07:59.516Z,16.5
2017-06-16T03:08:58.745Z,16.5
2017-06-16T03:09:57.975Z,16.5
2017-06-16T03:10:57.596Z,16.5
2017-06-16T03:12:56.058Z,16.5
2017-06-16T03:13:55.291Z,16.5
2017-06-16T03:14:54.596Z,16.5
2017-06-16T03:15:53.706Z,16.5
2017-06-16T03:16:53.441Z,16.5
2017-06-16T03:17:52.551Z,16.5
2017-06-16T03:18:51.782Z,16.5
2017-06-16T03:19:51.400Z,16.5
2017-06-16T03:20:50.639Z,16.5
2017-06-16T03:21:49.751Z,16.5
2017-06-16T03:23:48.754Z,16.5
2017-06-16T03:24:47.993Z,16.5
2017-06-16T03:25:47.180Z,16.5
2017-06-16T03:26:46.412Z,16.6
2017-06-16T03:27:45.646Z,16.6
2017-06-16T03:28:45.322Z,16.6
2017-06-16T03:29:44.450Z,16.6
2017-06-16T03:30:43.445Z,16.6
2017-06-16T03:31:43.181Z,16.6
2017-06-16T03:32:42.290Z,16.6
2017-06-16T03:34:41.292Z,16.6
2017-06-16T03:35:40.401Z,16.6
2017-06-16T03:36:39.636Z,16.6
2017-06-16T03:38:38.212Z,16.6
2017-06-16T03:39:37.823Z,16.6
2017-06-16T03:40:36.940Z,16.6
2017-06-16T03:41:36.171Z,16.6
2017-06-16T03:42:35.397Z,16.6
2017-06-16T03:43:35.130Z,16.6
2017-06-16T03:45:33.743Z,16.6
2017-06-16T03:46:32.851Z,16.6
2017-06-16T03:47:32.130Z,16.6
2017-06-16T03:48:31.366Z,16.6
2017-06-16T03:49:30.595Z,16.6
2017-06-16T03:50:30.214Z,16.6
2017-06-16T03:51:29.450Z,16.6
2017-06-16T03:52:29.141Z,16.7
2017-06-16T03:53:28.256Z,16.7
2017-06-16T03:54:27.363Z,16.7
2017-06-16T03:56:25.867Z,16.7
2017-06-16T03:57:25.601Z,16.7
2017-06-16T03:58:24.835Z,16.7
2017-06-16T03:59:24.066Z,16.7
2017-06-16T04:00:23.316Z,16.7
2017-06-16T04:01:22.552Z,16.7
2017-06-16T04:02:22.363Z,16.7
2017-06-16T04:03:21.099Z,16.7
2017-06-16T04:04:21.268Z,16.7
2017-06-16T04:05:20.070Z,16.7
2017-06-16T04:06:19.378Z,16.7
2017-06-16T04:07:19.188Z,16.7
2017-06-16T04:08:17.914Z,16.7
2017-06-16T04:09:17.143Z,16.7
2017-06-16T04:10:16.377Z,16.7
2017-06-16T04:11:15.601Z,16.7
2017-06-16T04:13:14.801Z,16.7
2017-06-16T04:14:14.026Z,16.8
2017-06-16T04:15:13.277Z,16.7
2017-06-16T04:16:12.505Z,16.7
2017-06-16T04:17:11.740Z,16.7
2017-06-16T04:18:10.849Z,16.7
2017-06-16T04:19:10.463Z,16.8
2017-06-16T04:20:09.569Z,16.8
2017-06-16T04:21:09.194Z,16.8
2017-06-16T04:22:08.308Z,16.8
2017-06-16T04:23:07.428Z,16.8
2017-06-16T04:24:07.052Z,16.8
2017-06-16T04:25:06.304Z,16.8
2017-06-16T04:26:06.117Z,16.8
2017-06-16T04:27:04.618Z,16.8
2017-06-16T04:28:04.803Z,16.8
2017-06-16T04:29:03.414Z,16.8
2017-06-16T04:30:02.638Z,16.8
2017-06-16T04:31:02.401Z,16.8
2017-06-16T04:32:01.634Z,16.8
2017-06-16T04:33:00.954Z,16.8
2017-06-16T04:34:00.071Z,16.8
2017-06-16T04:34:59.724Z,16.8
2017-06-16T04:36:58.227Z,16.9
2017-06-16T04:37:57.459Z,16.9
2017-06-16T04:38:56.574Z,16.9
2017-06-16T04:39:55.958Z,16.9
2017-06-16T04:40:55.769Z,16.9
2017-06-16T04:41:54.493Z,16.9
2017-06-16T04:42:54.234Z,16.9
2017-06-16T04:43:53.494Z,16.9
2017-06-16T04:44:52.684Z,16.9
2017-06-16T04:45:51.795Z,16.9
2017-06-16T04:46:51.423Z,16.9
2017-06-16T04:47:50.671Z,16.9
2017-06-16T04:48:49.670Z,16.9
2017-06-16T04:49:49.277Z,16.9
2017-06-16T04:50:48.591Z,16.9
2017-06-16T04:51:47.820Z,16.9
2017-06-16T04:53:46.439Z,17
2017-06-16T04:54:45.670Z,17
2017-06-16T04:55:44.780Z,17
2017-06-16T04:56:44.513Z,17
2017-06-16T04:57:43.625Z,17
2017-06-16T04:58:42.859Z,17
2017-06-16T04:59:42.589Z,17
2017-06-16T05:00:41.704Z,16.9
2017-06-16T05:01:40.931Z,16.9
2017-06-16T05:02:40.169Z,16.9
2017-06-16T05:03:39.784Z,16.9
2017-06-16T05:04:39.052Z,16.9
2017-06-16T05:05:38.171Z,16.9
2017-06-16T05:06:37.910Z,16.9
2017-06-16T05:07:37.594Z,16.9
2017-06-16T05:08:36.208Z,16.9
2017-06-16T05:09:35.438Z,16.9
2017-06-16T05:11:34.070Z,16.9
2017-06-16T05:12:33.808Z,16.9
2017-06-16T05:13:32.918Z,16.9
2017-06-16T05:14:32.145Z,16.9
2017-06-16T05:15:31.759Z,16.9
2017-06-16T05:16:30.872Z,16.9
2017-06-16T05:17:30.557Z,16.9
2017-06-16T05:18:29.284Z,16.9
2017-06-16T05:19:29.016Z,17
2017-06-16T05:20:28.315Z,17
2017-06-16T05:21:27.544Z,17
2017-06-16T05:22:26.773Z,17
2017-06-16T05:23:26.394Z,17
2017-06-16T05:24:25.506Z,17
2017-06-16T05:25:24.618Z,17.1
2017-06-16T05:27:23.241Z,17.2
2017-06-16T05:28:22.972Z,17.2
2017-06-16T05:29:22.207Z,17.2
2017-06-16T05:30:21.324Z,17.2
2017-06-16T05:31:20.547Z,17.2
2017-06-16T05:32:20.164Z,17.2
2017-06-16T05:33:19.467Z,17.2
2017-06-16T05:34:18.702Z,17.2
2017-06-16T05:35:17.898Z,17.2
2017-06-16T05:36:17.131Z,17.2
2017-06-16T05:37:16.751Z,17.2
2017-06-16T05:38:15.994Z,17.2
2017-06-16T05:39:15.234Z,17.3
2017-06-16T05:40:14.849Z,17.3
2017-06-16T05:41:14.075Z,17.3
2017-06-16T05:42:13.188Z,17.3
2017-06-16T05:43:12.413Z,17.4
2017-06-16T05:44:12.146Z,17.4
2017-06-16T05:45:11.371Z,17.4
2017-06-16T05:46:10.477Z,17.4
2017-06-16T05:47:10.098Z,17.4
2017-06-16T05:48:09.332Z,17.4
2017-06-16T05:49:08.323Z,17.4
2017-06-16T05:50:07.714Z,17.4
2017-06-16T05:51:07.091Z,17.3
2017-06-16T05:52:06.200Z,17.3
2017-06-16T05:53:05.824Z,17.3
2017-06-16T05:54:04.936Z,17.3
2017-06-16T05:55:04.554Z,17.4
2017-06-16T05:56:03.741Z,17.4
2017-06-16T05:57:02.858Z,17.4
2017-06-16T05:59:01.753Z,17.5
2017-06-16T06:00:01.054Z,17.5
2017-06-16T06:01:00.285Z,17.5
2017-06-16T06:01:59.905Z,17.5
2017-06-16T06:02:59.136Z,17.6
2017-06-16T06:03:58.367Z,17.6
2017-06-16T06:04:57.997Z,17.6
2017-06-16T06:05:57.807Z,17.7
2017-06-16T06:07:55.818Z,17.7
2017-06-16T06:08:54.928Z,17.7
2017-06-16T06:09:54.544Z,17.7
2017-06-16T06:10:53.656Z,17.8
2017-06-16T06:11:52.889Z,17.8
2017-06-16T06:12:52.502Z,17.8
2017-06-16T06:13:51.491Z,17.8
2017-06-16T06:14:51.228Z,17.9
2017-06-16T06:15:50.338Z,17.9
2017-06-16T06:16:49.565Z,17.9
2017-06-16T06:17:49.176Z,17.9
2017-06-16T06:18:48.431Z,18
2017-06-16T06:19:47.658Z,17.9
2017-06-16T06:20:46.903Z,18
2017-06-16T06:21:46.015Z,18.1
2017-06-16T06:22:45.635Z,18.1
2017-06-16T06:23:45.250Z,18.1
2017-06-16T06:24:44.247Z,18.1
2017-06-16T06:25:43.357Z,18.1
2017-06-16T06:26:43.100Z,18.1
2017-06-16T06:27:42.593Z,18.1
2017-06-16T06:28:41.830Z,18.1
2017-06-16T06:29:41.058Z,18.2
2017-06-16T06:30:40.170Z,18.2
2017-06-16T06:31:39.906Z,18.2
2017-06-16T06:32:39.051Z,18.3
2017-06-16T06:33:38.290Z,18.3
2017-06-16T06:34:37.523Z,18.3
2017-06-16T06:35:37.261Z,18.3
2017-06-16T06:36:07.802Z,18.3
2017-06-16T06:36:38.345Z,18.4
2017-06-16T06:37:35.598Z,18.4
2017-06-16T06:38:35.339Z,18.5
2017-06-16T06:39:34.575Z,18.5
2017-06-16T06:40:33.813Z,18.5
2017-06-16T06:41:33.633Z,18.5
2017-06-16T06:42:32.309Z,18.5
2017-06-16T06:44:30.816Z,18.5
2017-06-16T06:45:30.437Z,18.6
2017-06-16T06:46:29.668Z,18.6
2017-06-16T06:47:29.402Z,18.6
2017-06-16T06:48:28.634Z,18.6
2017-06-16T06:49:27.873Z,18.6
2017-06-16T06:50:27.108Z,18.6
2017-06-16T06:51:26.725Z,18.6
2017-06-16T06:52:25.954Z,18.6
2017-06-16T06:53:25.188Z,18.6
2017-06-16T06:54:24.299Z,18.7
2017-06-16T06:55:24.030Z,18.7
2017-06-16T06:56:23.265Z,18.7
2017-06-16T06:57:22.501Z,18.7
2017-06-16T06:58:21.751Z,18.7
2017-06-16T06:59:21.502Z,18.7
2017-06-16T07:00:20.616Z,18.6
2017-06-16T07:01:19.843Z,18.6
2017-06-16T07:02:19.346Z,18.6
2017-06-16T07:03:18.540Z,18.6
2017-06-16T07:04:18.268Z,18.7
2017-06-16T07:05:17.385Z,18.7
2017-06-16T07:06:16.998Z,18.7
2017-06-16T07:07:16.237Z,18.7
2017-06-16T07:08:16.105Z,18.7
2017-06-16T07:09:14.827Z,18.7
2017-06-16T07:10:14.056Z,18.7
2017-06-16T07:11:13.365Z,18.7
2017-06-16T07:12:13.049Z,18.8
2017-06-16T07:13:12.162Z,18.9
2017-06-16T07:14:11.406Z,18.9
2017-06-16T07:15:11.603Z,18.9
2017-06-16T07:16:10.333Z,18.9
2017-06-16T07:17:09.452Z,18.9
2017-06-16T07:18:09.189Z,19
2017-06-16T07:19:08.307Z,18.9
2017-06-16T07:20:07.420Z,18.9
2017-06-16T07:21:07.157Z,19
2017-06-16T07:23:05.775Z,19
2017-06-16T07:24:05.007Z,19
2017-06-16T07:25:05.332Z,19
2017-06-16T07:26:03.951Z,18.9
2017-06-16T07:27:03.185Z,19
2017-06-16T07:28:02.301Z,18.9
2017-06-16T07:29:01.681Z,18.9
2017-06-16T07:30:01.302Z,18.9
2017-06-16T07:31:00.567Z,18.8
2017-06-16T07:31:59.799Z,18.8
2017-06-16T07:32:59.537Z,18.7
2017-06-16T07:33:58.771Z,18.7
2017-06-16T07:34:58.000Z,18.7
2017-06-16T07:35:57.240Z,18.7
2017-06-16T07:36:56.926Z,18.8
2017-06-16T07:37:56.749Z,18.7
2017-06-16T07:38:55.488Z,18.7
2017-06-16T07:39:54.717Z,18.7
2017-06-16T07:40:54.336Z,18.7
2017-06-16T07:41:53.331Z,18.7
2017-06-16T07:42:24.136Z,18.7
2017-06-16T07:42:54.674Z,18.7
2017-06-16T07:43:25.217Z,18.7
2017-06-16T07:43:55.767Z,18.7
2017-06-16T07:44:26.319Z,18.7
2017-06-16T07:45:51.219Z,18.9
2017-06-16T07:46:50.447Z,19
2017-06-16T07:47:49.561Z,19
2017-06-16T07:48:49.179Z,19
2017-06-16T07:49:48.416Z,19
2017-06-16T07:50:47.717Z,18.9
2017-06-16T07:51:47.330Z,18.9
2017-06-16T07:52:46.439Z,18.9
2017-06-16T07:53:45.674Z,18.9
2017-06-16T07:54:45.282Z,18.8
2017-06-16T07:55:44.398Z,18.7
2017-06-16T07:56:44.018Z,18.6
2017-06-16T07:57:43.126Z,18.7
2017-06-16T07:58:42.853Z,18.7
2017-06-16T07:59:42.078Z,18.5
2017-06-16T08:00:41.300Z,18.5
2017-06-16T08:01:40.527Z,18.6
2017-06-16T08:02:40.834Z,18.6
2017-06-16T08:03:39.567Z,18.6
2017-06-16T08:04:38.684Z,18.6
2017-06-16T08:05:38.294Z,18.6
2017-06-16T08:06:37.610Z,18.5
2017-06-16T08:07:36.796Z,18.6
2017-06-16T08:08:36.531Z,18.6
2017-06-16T08:09:35.529Z,18.5
2017-06-16T08:10:34.770Z,18.4
2017-06-16T08:11:34.513Z,18.3
2017-06-16T08:12:33.754Z,18.3
2017-06-16T08:13:32.870Z,18.3
2017-06-16T08:14:32.604Z,18.3
2017-06-16T08:15:31.720Z,18.3
2017-06-16T08:16:30.953Z,18.3
2017-06-16T08:17:30.693Z,18.2
2017-06-16T08:18:29.805Z,18.2
2017-06-16T08:19:29.045Z,18.1
2017-06-16T08:21:28.061Z,18.1
2017-06-16T08:22:27.293Z,18
2017-06-16T08:23:26.528Z,18
2017-06-16T08:24:25.771Z,18
2017-06-16T08:25:25.392Z,18
2017-06-16T08:26:24.626Z,18
2017-06-16T08:28:23.246Z,18.1
2017-06-16T08:29:22.976Z,18.2
2017-06-16T08:31:21.599Z,18.3
2017-06-16T08:32:20.827Z,18.3
2017-06-16T08:33:20.026Z,18.4
2017-06-16T08:34:19.527Z,18.4
2017-06-16T08:35:18.644Z,18.4
2017-06-16T08:36:18.263Z,18.4
2017-06-16T08:37:17.439Z,18.4
2017-06-16T08:38:17.181Z,18.4
2017-06-16T08:39:16.417Z,18.4
2017-06-16T08:40:15.528Z,18.4
2017-06-16T08:41:14.757Z,18.4
2017-06-16T08:42:14.495Z,18.4
2017-06-16T08:43:13.607Z,18.4
2017-06-16T08:44:12.799Z,18.4
2017-06-16T08:45:12.531Z,18.4
2017-06-16T08:46:11.763Z,18.4
2017-06-16T08:47:11.068Z,18.5
2017-06-16T08:48:10.298Z,18.5
2017-06-16T08:49:10.036Z,18.4
2017-06-16T08:50:09.148Z,18.4
2017-06-16T08:51:08.649Z,18.4
2017-06-16T08:52:07.884Z,18.4
2017-06-16T08:53:07.113Z,18.4
2017-06-16T08:54:06.611Z,18.3
2017-06-16T08:55:05.723Z,18.4
2017-06-16T08:56:05.221Z,18.4
2017-06-16T08:57:04.832Z,18.6
2017-06-16T08:58:04.063Z,18.6
2017-06-16T08:59:03.287Z,18.6
2017-06-16T09:00:02.518Z,18.7
2017-06-16T09:01:02.408Z,18.7
2017-06-16T09:02:01.642Z,18.7
2017-06-16T09:03:00.513Z,18.7
2017-06-16T09:04:00.244Z,18.6
2017-06-16T09:04:59.546Z,18.7
2017-06-16T09:05:58.658Z,18.7
2017-06-16T09:06:58.392Z,18.6
2017-06-16T09:07:57.457Z,18.5
2017-06-16T09:08:56.690Z,18.6
2017-06-16T09:09:56.308Z,18.6
2017-06-16T09:10:55.371Z,18.7
2017-06-16T09:11:55.104Z,18.8
2017-06-16T09:12:54.096Z,18.9
2017-06-16T09:13:53.831Z,19
2017-06-16T09:14:53.060Z,19.1
2017-06-16T09:15:52.054Z,19.2
2017-06-16T09:16:51.558Z,19.3
2017-06-16T09:17:51.293Z,19.4
2017-06-16T09:18:50.532Z,19.5
2017-06-16T09:20:49.036Z,19.4
2017-06-16T09:21:48.274Z,19.4
2017-06-16T09:22:48.005Z,19.4
2017-06-16T09:23:47.238Z,19.3
2017-06-16T09:25:45.788Z,19.3
2017-06-16T09:27:44.441Z,19.2
2017-06-16T09:28:44.250Z,19.2
2017-06-16T09:29:43.360Z,19.2
2017-06-16T09:30:42.988Z,19.1
2017-06-16T09:31:42.216Z,18.9
2017-06-16T09:32:41.334Z,18.7
2017-06-16T09:33:40.646Z,18.6
2017-06-16T09:34:40.264Z,18.5
2017-06-16T09:35:39.139Z,18.3
2017-06-16T09:36:38.873Z,18.1
2017-06-16T09:37:38.676Z,17.9
2017-06-16T09:38:37.922Z,17.8
2017-06-16T09:40:36.545Z,17.7
2017-06-16T09:41:35.658Z,17.6
2017-06-16T09:42:34.966Z,17.6
2017-06-16T09:43:34.265Z,17.5
2017-06-16T09:44:33.999Z,17.4
2017-06-16T09:45:33.233Z,17.3
2017-06-16T09:46:32.462Z,17.4
2017-06-16T09:47:31.687Z,17.3
2017-06-16T09:48:30.992Z,17.4
2017-06-16T09:49:30.725Z,17.3
2017-06-16T09:50:30.029Z,17.2
2017-06-16T09:51:29.279Z,17.2
2017-06-16T09:52:28.509Z,17.2
2017-06-16T09:53:27.737Z,17.2
2017-06-16T09:54:27.350Z,17.3
2017-06-16T09:55:26.585Z,17.2
2017-06-16T09:56:26.199Z,17.2
2017-06-16T09:57:25.386Z,17.2
2017-06-16T09:58:24.701Z,17.2
2017-06-16T09:59:23.933Z,17.1
2017-06-16T10:00:23.174Z,17.2
2017-06-16T10:01:22.475Z,17.2
2017-06-16T10:03:21.638Z,17.1
2017-06-16T10:04:20.876Z,17.1
2017-06-16T10:05:19.983Z,17
2017-06-16T10:06:19.477Z,17.1
2017-06-16T10:07:18.853Z,17
2017-06-16T10:08:17.934Z,17.1
2017-06-16T10:09:17.160Z,17.1
2017-06-16T10:10:16.907Z,17.1
2017-06-16T10:11:16.133Z,17.2
2017-06-16T10:12:15.360Z,17.2
2017-06-16T10:13:14.597Z,17.1
2017-06-16T10:14:13.830Z,17.1
2017-06-16T10:15:13.494Z,17.1
2017-06-16T10:16:12.492Z,17
2017-06-16T10:17:12.115Z,17
2017-06-16T10:18:11.222Z,16.9
2017-06-16T10:19:10.956Z,16.9
2017-06-16T10:20:10.191Z,17
2017-06-16T10:21:09.418Z,16.9
2017-06-16T10:22:08.647Z,16.9
2017-06-16T10:23:07.889Z,16.8
2017-06-16T10:24:06.881Z,16.8
2017-06-16T10:25:06.758Z,16.7
2017-06-16T10:26:05.982Z,16.6
2017-06-16T10:27:05.366Z,16.6
2017-06-16T10:28:04.872Z,16.6
2017-06-16T10:29:04.101Z,16.6
2017-06-16T10:30:03.409Z,16.6
2017-06-16T10:31:02.649Z,16.6
2017-06-16T10:32:01.771Z,16.6
2017-06-16T10:33:01.502Z,16.6
2017-06-16T10:34:00.736Z,16.6
2017-06-16T10:34:59.739Z,16.5
2017-06-16T10:35:59.238Z,16.6
2017-06-16T10:36:58.223Z,16.6
2017-06-16T10:37:57.955Z,16.6
2017-06-16T10:38:56.953Z,16.6
2017-06-16T10:39:56.450Z,16.5
2017-06-16T10:40:55.688Z,16.5
2017-06-16T10:41:54.923Z,16.6
2017-06-16T10:42:54.228Z,16.5
2017-06-16T10:43:53.726Z,16.5
2017-06-16T10:44:52.961Z,16.5
2017-06-16T10:45:52.778Z,16.5
2017-06-16T10:46:51.505Z,16.6
2017-06-16T10:47:51.241Z,16.6
2017-06-16T10:48:50.470Z,16.6
2017-06-16T10:49:49.698Z,16.6
2017-06-16T10:50:48.931Z,16.6
2017-06-16T10:51:48.163Z,16.6
2017-06-16T10:52:47.277Z,16.7
2017-06-16T10:53:46.778Z,16.7
2017-06-16T10:54:46.089Z,16.8
2017-06-16T10:55:45.320Z,16.8
2017-06-16T10:56:45.060Z,16.9
2017-06-16T10:57:44.868Z,17
2017-06-16T10:58:43.604Z,17
2017-06-16T10:59:42.832Z,17
2017-06-16T11:00:42.058Z,17.1
2017-06-16T11:01:41.290Z,17.2
2017-06-16T11:02:40.432Z,17.2
2017-06-16T11:03:40.166Z,17.3
2017-06-16T11:04:39.279Z,17.5
2017-06-16T11:05:38.509Z,17.5
2017-06-16T11:06:38.234Z,17.7
2017-06-16T11:07:37.459Z,17.8
2017-06-16T11:08:36.684Z,17.9
2017-06-16T11:09:35.912Z,18
2017-06-16T11:10:35.148Z,18.1
2017-06-16T11:11:34.769Z,18.2
2017-06-16T11:12:33.996Z,18.2
2017-06-16T11:13:33.220Z,18.3
2017-06-16T11:14:32.333Z,18.2
2017-06-16T11:15:31.952Z,18.2
2017-06-16T11:16:31.183Z,18.3
2017-06-16T11:17:30.415Z,18.3
2017-06-16T11:18:29.489Z,18.4
2017-06-16T11:19:29.109Z,18.5
2017-06-16T11:20:28.342Z,18.5
2017-06-16T11:21:28.091Z,18.7
2017-06-16T11:22:27.330Z,18.7
2017-06-16T11:23:26.332Z,18.8
2017-06-16T11:24:25.646Z,18.9
2017-06-16T11:25:25.382Z,18.9
2017-06-16T11:26:24.617Z,19
2017-06-16T11:27:23.845Z,19
2017-06-16T11:28:23.079Z,19
2017-06-16T11:29:22.311Z,19.2
2017-06-16T11:30:21.932Z,19.3
2017-06-16T11:31:21.067Z,19.4
2017-06-16T11:32:20.685Z,19.5
2017-06-16T11:33:19.921Z,19.7
2017-06-16T11:34:19.152Z,19.7
2017-06-16T11:35:18.395Z,19.8
2017-06-16T11:36:18.134Z,19.7
2017-06-16T11:37:17.362Z,19.5
2017-06-16T11:38:16.593Z,19.4
2017-06-16T11:39:15.814Z,19.4
2017-06-16T11:40:15.429Z,19.3
2017-06-16T11:41:14.656Z,19.3
2017-06-16T11:42:14.157Z,19.4
2017-06-16T11:43:13.387Z,19.4
2017-06-16T11:44:12.629Z,19.4
2017-06-16T11:45:11.860Z,19.4
2017-06-16T11:46:11.474Z,19.4
2017-06-16T11:47:10.706Z,19.3
2017-06-16T11:48:09.958Z,19.3
2017-06-16T11:49:09.701Z,19.3
2017-06-16T11:50:08.696Z,19.4
2017-06-16T11:51:08.320Z,19.5
2017-06-16T11:52:07.436Z,19.6
2017-06-16T11:53:06.939Z,19.6
2017-06-16T11:54:06.048Z,19.6
2017-06-16T11:54:36.472Z,19.6
2017-06-16T11:55:06.776Z,19.6
2017-06-16T11:55:37.205Z,19.6
2017-06-16T11:56:07.742Z,19.6
2017-06-16T11:57:04.336Z,19.6
2017-06-16T11:58:03.836Z,19.6
2017-06-16T11:59:03.334Z,19.6
2017-06-16T12:00:02.450Z,19.5
2017-06-16T12:01:01.944Z,19.5
2017-06-16T12:02:01.181Z,19.5
2017-06-16T12:03:00.411Z,19.5
2017-06-16T12:04:00.028Z,19.5
2017-06-16T12:04:59.264Z,19.5
2017-06-16T12:05:58.643Z,19.6
2017-06-16T12:06:57.754Z,19.5
2017-06-16T12:07:57.367Z,19.6
2017-06-16T12:08:56.595Z,19.7
2017-06-16T12:09:55.835Z,19.7
2017-06-16T12:10:55.453Z,19.7
2017-06-16T12:11:54.684Z,19.8
2017-06-16T12:12:53.917Z,19.9
2017-06-16T12:13:53.653Z,19.9
2017-06-16T12:14:52.895Z,20.1
2017-06-16T12:15:52.129Z,20.2
2017-06-16T12:16:51.753Z,20.3
2017-06-16T12:17:50.930Z,20.3
2017-06-16T12:18:50.166Z,20.2
2017-06-16T12:19:49.899Z,20.2
2017-06-16T12:20:49.130Z,20.2
2017-06-16T12:21:48.366Z,20.2
2017-06-16T12:22:47.600Z,20.1
2017-06-16T12:23:46.981Z,20.1
2017-06-16T12:24:46.723Z,20.1
2017-06-16T12:25:45.918Z,20.1
2017-06-16T12:26:45.534Z,20
2017-06-16T12:27:44.773Z,19.9
2017-06-16T12:28:43.892Z,19.8
2017-06-16T12:29:43.390Z,19.7
2017-06-16T12:30:42.618Z,19.6
2017-06-16T12:31:42.353Z,19.6
2017-06-16T12:32:41.579Z,19.6
2017-06-16T12:33:40.697Z,19.5
2017-06-16T12:34:40.318Z,19.5
2017-06-16T12:35:39.545Z,19.5
2017-06-16T12:37:38.169Z,19.4
2017-06-16T12:39:37.294Z,19.4
2017-06-16T12:40:36.596Z,19.4
2017-06-16T12:41:35.709Z,19.4
2017-06-16T12:42:35.321Z,19.4
2017-06-16T12:44:33.825Z,19.4
2017-06-16T12:45:33.330Z,19.3
2017-06-16T12:46:32.562Z,19.3
2017-06-16T12:47:32.187Z,19.2
2017-06-16T12:48:31.298Z,19.2
2017-06-16T12:49:30.912Z,19.2
2017-06-16T12:50:30.728Z,19.2
2017-06-16T12:51:29.464Z,19.1
2017-06-16T12:52:28.712Z,19.1
2017-06-16T12:53:28.332Z,19.1
2017-06-16T12:54:27.574Z,19
2017-06-16T12:55:26.808Z,19
2017-06-16T12:56:26.552Z,19
2017-06-16T12:57:25.786Z,19
2017-06-16T12:58:25.026Z,19
2017-06-16T12:59:24.141Z,19
2017-06-16T13:00:23.876Z,19
2017-06-16T13:01:23.115Z,18.9
2017-06-16T13:02:22.234Z,18.8
2017-06-16T13:03:21.962Z,18.7
2017-06-16T13:04:21.079Z,18.7
2017-06-16T13:05:20.583Z,18.7
2017-06-16T13:06:19.819Z,18.8
2017-06-16T13:07:19.558Z,18.8
2017-06-16T13:09:18.062Z,18.8
2017-06-16T13:10:17.177Z,18.8
2017-06-16T13:11:16.799Z,18.8
2017-06-16T13:12:16.052Z,18.8
2017-06-16T13:13:15.790Z,18.8
2017-06-16T13:14:15.019Z,18.8
2017-06-16T13:15:14.151Z,18.8
2017-06-16T13:17:12.768Z,18.9
2017-06-16T13:18:12.385Z,19
2017-06-16T13:19:11.619Z,19
2017-06-16T13:20:10.852Z,19
2017-06-16T13:21:10.603Z,19.1
2017-06-16T13:22:09.837Z,19
2017-06-16T13:23:09.066Z,19.1
2017-06-16T13:24:08.299Z,19.4
2017-06-16T13:25:08.038Z,19.5
2017-06-16T13:26:07.262Z,19.9
2017-06-16T13:27:06.261Z,20
2017-06-16T13:28:05.635Z,19.9
2017-06-16T13:29:05.717Z,19.8
2017-06-16T13:31:04.117Z,19.9
2017-06-16T13:32:03.346Z,20
2017-06-16T13:33:02.961Z,20
2017-06-16T13:34:01.958Z,20.1
2017-06-16T13:35:01.714Z,20
2017-06-16T13:36:00.835Z,20.2
2017-06-16T13:36:59.952Z,20.4
2017-06-16T13:37:59.329Z,20.4
2017-06-16T13:38:59.057Z,20.4
2017-06-16T13:39:58.176Z,20.4
2017-06-16T13:40:57.907Z,20.3
2017-06-16T13:41:57.021Z,20.1